Time;durP1;ratioP1;P1;durP2;ratioP2;P2;SDS_P1;SDS_P2;PMS_P1;PMS_P2;Temp;Humidity;BMP_temperature;BMP_pressure;BME280_temperature;BME280_humidity;BME280_pressure;Samples;Min_cycle;Max_cycle;Signal;HPM_P1;HPM_P2
2022/09/03 00:00:09;;;;;;;2.63;2.43;;;17.50;99.90;;;;;;5096686;28;20450;-56
2022/09/03 00:02:44;;;;;;;4.90;3.33;;;17.60;99.90;;;;;;5097246;28;20484;-54
2022/09/03 00:05:25;;;;;;;1.97;1.80;;;17.60;99.90;;;;;;5096179;28;20724;-55
2022/09/03 00:08:03;;;;;;;2.90;2.67;;;17.60;99.90;;;;;;5097322;28;20488;-55
2022/09/03 00:10:42;;;;;;;3.13;2.20;;;17.60;99.90;;;;;;5097199;28;20868;-50
2022/09/03 00:13:12;;;;;;;5.37;2.67;;;17.50;99.90;;;;;;5096785;28;20530;-54
2022/09/03 00:15:40;;;;;;;2.40;2.20;;;17.50;99.90;;;;;;5097318;28;20567;-52
2022/09/03 00:18:15;;;;;;;3.33;2.20;;;17.50;99.90;;;;;;5097576;28;20450;-56
2022/09/03 00:20:50;;;;;;;3.30;2.50;;;17.50;99.90;;;;;;5096781;28;20867;-58
2022/09/03 00:23:21;;;;;;;2.83;2.10;;;17.40;99.90;;;;;;5097048;28;20462;-57
2022/09/03 00:25:54;;;;;;;2.57;2.10;;;17.40;99.90;;;;;;5097384;28;20548;-54
2022/09/03 00:28:29;;;;;;;2.33;2.13;;;17.40;99.90;;;;;;5097027;28;20584;-57
2022/09/03 00:31:06;;;;;;;5.10;2.17;;;17.40;99.90;;;;;;5096544;28;20872;-57
2022/09/03 00:33:37;;;;;;;2.70;2.50;;;17.40;99.90;;;;;;5097179;28;20470;-55
2022/09/03 00:36:14;;;;;;;3.57;2.40;;;17.30;99.90;;;;;;5096982;28;20875;-56
2022/09/03 00:38:42;;;;;;;3.10;2.80;;;17.30;99.90;;;;;;5097408;28;20564;-52
2022/09/03 00:41:17;;;;;;;3.60;2.37;;;17.30;99.90;;;;;;5096105;28;20468;-57
2022/09/03 00:44:00;;;;;;;2.20;2.00;;;17.40;99.90;;;;;;5096678;28;20464;-55
2022/09/03 00:46:36;;;;;;;2.40;2.30;;;17.30;99.90;;;;;;5096810;28;20467;-55
2022/09/03 00:49:28;;;;;;;3.30;2.00;;;17.30;99.90;;;;;;5097051;28;20914;-55
2022/09/03 00:52:10;;;;;;;2.63;2.43;;;17.20;99.90;;;;;;5095700;28;20584;-51
2022/09/03 00:54:46;;;;;;;3.13;2.73;;;17.20;99.90;;;;;;5097312;28;20464;-50
2022/09/03 00:57:37;;;;;;;3.87;2.40;;;17.10;99.90;;;;;;5096251;28;20554;-57
2022/09/03 01:00:11;;;;;;;2.33;2.13;;;17.10;99.90;;;;;;5096223;28;20434;-52
2022/09/03 01:02:56;;;;;;;5.67;2.50;;;17.20;99.90;;;;;;5096544;28;20459;-54
2022/09/03 01:05:40;;;;;;;2.13;1.93;;;17.20;99.90;;;;;;5100193;28;20461;-55
2022/09/03 01:08:21;;;;;;;3.43;2.13;;;17.20;99.90;;;;;;5099943;28;20865;-55
2022/09/03 01:10:57;;;;;;;2.30;2.10;;;17.20;99.90;;;;;;5099913;28;20470;-51
2022/09/03 01:13:30;;;;;;;6.07;2.13;;;17.10;99.90;;;;;;5099331;28;20438;-55
2022/09/03 01:16:11;;;;;;;2.53;2.33;;;17.10;99.90;;;;;;5099942;28;20925;-55
2022/09/03 01:18:44;;;;;;;2.93;2.67;;;17.10;99.90;;;;;;5099600;28;20511;-53
2022/09/03 01:21:41;;;;;;;2.10;1.90;;;17.00;99.90;;;;;;5099843;28;20772;-52
2022/09/03 01:24:37;;;;;;;2.10;1.90;;;17.10;99.90;;;;;;5099472;28;20460;-55
2022/09/03 01:27:17;;;;;;;3.53;1.80;;;17.10;99.90;;;;;;5079534;28;20471;-57
2022/09/03 01:29:55;;;;;;;2.53;2.33;;;17.00;99.90;;;;;;5079747;28;20473;-57
2022/09/03 01:32:32;;;;;;;2.40;2.20;;;17.00;99.90;;;;;;5079858;28;20468;-51
2022/09/03 01:35:13;;;;;;;2.37;2.17;;;17.00;99.90;;;;;;5094575;28;20442;-49
2022/09/03 01:37:48;;;;;;;2.87;2.57;;;17.00;99.90;;;;;;5079749;28;20766;-58
2022/09/03 01:40:28;;;;;;;2.43;1.93;;;17.10;99.90;;;;;;5079805;28;20839;-53
2022/09/03 01:43:13;;;;;;;3.13;1.93;;;17.00;99.90;;;;;;5079308;28;20564;-55
2022/09/03 01:45:58;;;;;;;5.20;2.17;;;17.00;99.90;;;;;;5096191;28;20805;-55
2022/09/03 01:48:41;;;;;;;2.97;2.40;;;17.00;99.90;;;;;;5099583;28;20476;-51
2022/09/03 01:51:18;;;;;;;3.70;2.30;;;17.00;99.90;;;;;;5098597;28;20567;-55
2022/09/03 01:54:26;;;;;;;3.50;2.93;;;17.00;99.90;;;;;;5099270;28;20465;-55
2022/09/03 01:57:25;;;;;;;4.23;2.00;;;17.00;99.90;;;;;;5098003;28;20482;-55
2022/09/03 02:00:00;;;;;;;2.33;2.13;;;17.00;99.90;;;;;;5099157;28;22080;-56
2022/09/03 02:02:30;;;;;;;2.10;1.90;;;17.00;99.90;;;;;;5099103;28;20539;-55
2022/09/03 02:05:02;;;;;;;2.83;2.03;;;17.00;99.90;;;;;;5099271;28;20735;-53
2022/09/03 02:07:34;;;;;;;2.70;2.50;;;17.10;99.90;;;;;;5099037;28;20484;-51
2022/09/03 02:10:03;;;;;;;8.93;1.90;;;17.00;99.90;;;;;;5098604;28;20438;-57
2022/09/03 02:12:33;;;;;;;2.27;2.07;;;17.10;99.90;;;;;;5097420;28;20467;-57
2022/09/03 02:15:02;;;;;;;1.97;1.87;;;17.00;99.90;;;;;;5098274;28;20488;-53
2022/09/03 02:17:32;;;;;;;4.17;2.13;;;17.00;99.90;;;;;;5099248;28;20792;-52
2022/09/03 02:20:07;;;;;;;2.57;2.33;;;16.90;99.90;;;;;;5099236;28;20568;-53
2022/09/03 02:22:39;;;;;;;2.27;1.80;;;16.90;99.90;;;;;;5098530;28;20552;-55
2022/09/03 02:25:10;;;;;;;4.77;2.00;;;16.90;99.90;;;;;;5098658;28;20465;-57
2022/09/03 02:27:38;;;;;;;2.87;2.57;;;16.90;99.90;;;;;;5098918;28;20666;-56
2022/09/03 02:30:07;;;;;;;2.70;2.50;;;16.90;99.90;;;;;;5098405;28;20559;-57
2022/09/03 02:32:36;;;;;;;2.97;2.40;;;16.90;99.90;;;;;;5098969;28;20484;-58
2022/09/03 02:35:05;;;;;;;2.40;2.20;;;16.90;99.90;;;;;;5097932;28;20443;-55
2022/09/03 02:37:35;;;;;;;2.30;2.10;;;16.90;99.90;;;;;;5098626;28;20907;-55
2022/09/03 02:40:05;;;;;;;3.10;2.13;;;16.90;99.90;;;;;;5097827;28;20525;-57
2022/09/03 02:42:33;;;;;;;2.20;2.00;;;16.90;99.90;;;;;;5099212;28;20500;-55
2022/09/03 02:45:09;;;;;;;2.10;1.90;;;16.90;99.90;;;;;;5098403;28;20461;-55
2022/09/03 02:47:40;;;;;;;2.63;2.03;;;16.80;99.90;;;;;;5093565;28;20801;-56
2022/09/03 02:50:09;;;;;;;3.13;2.37;;;16.70;99.90;;;;;;5096438;28;20575;-57
2022/09/03 02:52:36;;;;;;;2.40;2.20;;;16.70;99.90;;;;;;5095655;28;20462;-55
2022/09/03 02:55:04;;;;;;;2.50;2.20;;;16.80;99.90;;;;;;5097058;28;20460;-58
2022/09/03 02:57:36;;;;;;;2.97;2.27;;;16.80;99.90;;;;;;5095784;28;20456;-55
2022/09/03 03:00:07;;;;;;;2.30;1.87;;;16.80;99.90;;;;;;5097814;28;20502;-54
2022/09/03 03:02:34;;;;;;;2.47;2.07;;;16.80;99.90;;;;;;5097066;28;20435;-55
2022/09/03 03:05:10;;;;;;;2.80;1.70;;;16.70;99.90;;;;;;5097066;28;20461;-57
2022/09/03 03:07:40;;;;;;;2.70;2.23;;;16.70;99.90;;;;;;5097612;28;20571;-56
2022/09/03 03:10:08;;;;;;;2.40;2.10;;;16.70;99.90;;;;;;5096090;28;20463;-57
2022/09/03 03:12:37;;;;;;;2.27;2.07;;;16.70;99.90;;;;;;5076604;28;20756;-58
2022/09/03 03:15:05;;;;;;;3.13;2.57;;;16.70;99.90;;;;;;5079924;28;20468;-50
2022/09/03 03:17:33;;;;;;;4.80;2.50;;;16.70;99.90;;;;;;5094795;28;20467;-55
2022/09/03 03:20:03;;;;;;;2.70;2.00;;;16.70;99.90;;;;;;5095569;28;20439;-52
2022/09/03 03:22:32;;;;;;;1.90;1.80;;;16.70;99.90;;;;;;5096063;28;20899;-54
2022/09/03 03:25:04;;;;;;;2.17;1.97;;;16.60;99.90;;;;;;5096785;28;20772;-50
2022/09/03 03:27:34;;;;;;;4.50;2.27;;;16.60;99.90;;;;;;5096879;28;20488;-55
2022/09/03 03:30:09;;;;;;;3.27;2.23;;;16.60;99.90;;;;;;5097783;28;20443;-56
2022/09/03 03:32:36;;;;;;;2.63;2.17;;;16.60;99.90;;;;;;5097085;28;20478;-56
2022/09/03 03:35:04;;;;;;;2.30;2.10;;;16.60;99.90;;;;;;5096802;28;20526;-55
2022/09/03 03:37:34;;;;;;;2.70;2.10;;;16.60;99.90;;;;;;5097800;28;20456;-54
2022/09/03 03:40:01;;;;;;;2.07;1.87;;;16.50;99.90;;;;;;5097514;28;20439;-57
2022/09/03 03:42:28;;;;;;;2.50;2.13;;;16.50;99.90;;;;;;5097079;28;20539;-57
2022/09/03 03:44:58;;;;;;;3.17;2.43;;;16.60;99.90;;;;;;5097502;28;20554;-53
2022/09/03 03:47:26;;;;;;;2.97;2.27;;;16.50;99.90;;;;;;5097026;28;20472;-55
2022/09/03 03:49:53;;;;;;;2.13;1.90;;;16.50;99.90;;;;;;5097578;28;20545;-57
2022/09/03 03:52:20;;;;;;;2.67;1.90;;;16.50;99.90;;;;;;5096410;28;20559;-57
2022/09/03 03:54:52;;;;;;;2.10;1.90;;;16.40;99.90;;;;;;5096868;28;20929;-53
2022/09/03 03:57:20;;;;;;;3.50;2.23;;;16.40;99.90;;;;;;5097687;28;20875;-56
2022/09/03 03:59:48;;;;;;;3.43;2.30;;;16.30;99.90;;;;;;5097008;28;20483;-50
2022/09/03 04:02:16;;;;;;;2.50;2.30;;;16.00;99.90;;;;;;5097627;28;20559;-57
2022/09/03 04:04:45;;;;;;;4.20;2.20;;;15.80;99.90;;;;;;5097142;28;20547;-58
2022/09/03 04:07:14;;;;;;;2.10;1.90;;;15.80;99.90;;;;;;5096153;28;20846;-54
2022/09/03 04:09:41;;;;;;;3.10;2.30;;;15.80;99.90;;;;;;5096911;28;20435;-53
2022/09/03 04:12:12;;;;;;;3.50;2.17;;;15.70;99.90;;;;;;5097692;28;20554;-57
2022/09/03 04:14:41;;;;;;;4.90;2.70;;;15.70;99.90;;;;;;5096794;28;20522;-51
2022/09/03 04:17:11;;;;;;;2.20;2.00;;;15.60;99.90;;;;;;5097105;28;20841;-56
2022/09/03 04:19:39;;;;;;;2.60;2.37;;;15.60;99.90;;;;;;5096068;28;20865;-52
2022/09/03 04:22:06;;;;;;;4.07;2.33;;;15.50;99.90;;;;;;5097265;28;20868;-56
2022/09/03 04:24:34;;;;;;;2.60;2.30;;;15.50;99.90;;;;;;5096721;28;20491;-54
2022/09/03 04:27:02;;;;;;;2.13;1.93;;;15.30;99.90;;;;;;5095984;28;20442;-56
2022/09/03 04:29:32;;;;;;;2.90;2.27;;;15.30;99.90;;;;;;5096906;28;20467;-54
2022/09/03 04:34:44;;;;;;;6.37;2.20;;;15.20;99.90;;;;;;5096470;28;20470;-55
2022/09/03 04:37:15;;;;;;;4.17;2.07;;;15.20;99.90;;;;;;5096355;28;20518;-53
2022/09/03 04:39:42;;;;;;;2.53;2.33;;;15.20;99.90;;;;;;5098987;28;20460;-50
2022/09/03 04:42:09;;;;;;;2.87;2.30;;;15.20;99.90;;;;;;5101161;28;20739;-57
2022/09/03 04:44:41;;;;;;;2.70;2.50;;;15.20;99.90;;;;;;5100949;28;20466;-57
2022/09/03 04:47:08;;;;;;;2.07;1.87;;;15.20;99.90;;;;;;5099786;28;20461;-54
2022/09/03 04:49:35;;;;;;;4.70;2.20;;;15.20;99.90;;;;;;5100124;28;20463;-54
2022/09/03 04:52:03;;;;;;;2.70;2.50;;;15.20;99.90;;;;;;5100375;28;20484;-55
2022/09/03 04:54:30;;;;;;;2.70;2.50;;;15.10;99.90;;;;;;5101176;28;20445;-56
2022/09/03 04:56:59;;;;;;;3.07;2.80;;;15.20;99.90;;;;;;5099778;28;20488;-55
2022/09/03 04:59:26;;;;;;;3.17;2.73;;;15.20;99.90;;;;;;5100099;28;20489;-55
2022/09/03 05:01:55;;;;;;;2.43;2.23;;;15.10;99.90;;;;;;5100567;28;20930;-58
2022/09/03 05:04:22;;;;;;;2.33;2.13;;;15.10;99.90;;;;;;5100935;28;20452;-52
2022/09/03 05:06:50;;;;;;;3.17;2.37;;;15.10;99.90;;;;;;5099572;28;20471;-57
2022/09/03 05:09:17;;;;;;;4.10;2.70;;;15.20;99.90;;;;;;5099737;28;20556;-56
2022/09/03 05:11:45;;;;;;;5.73;2.60;;;15.10;99.90;;;;;;5100238;28;20456;-55
2022/09/03 05:14:12;;;;;;;2.53;2.17;;;15.10;99.90;;;;;;5100951;28;20463;-51
2022/09/03 05:16:40;;;;;;;3.63;3.33;;;15.10;99.90;;;;;;5100326;28;20556;-56
2022/09/03 05:19:09;;;;;;;2.77;2.00;;;15.10;99.90;;;;;;5099101;28;20458;-56
2022/09/03 05:21:37;;;;;;;4.77;2.47;;;15.10;99.90;;;;;;5099690;28;20465;-57
2022/09/03 05:24:06;;;;;;;2.33;2.10;;;15.20;99.90;;;;;;5098883;28;20884;-56
2022/09/03 05:26:37;;;;;;;2.10;1.90;;;15.20;99.90;;;;;;5100223;28;20467;-53
2022/09/03 05:29:06;;;;;;;2.53;2.33;;;15.20;99.90;;;;;;5099081;28;20587;-55
2022/09/03 05:31:36;;;;;;;3.10;2.17;;;15.30;99.90;;;;;;5099945;28;20765;-52
2022/09/03 05:34:05;;;;;;;2.87;2.40;;;15.40;99.90;;;;;;5099317;28;20446;-58
2022/09/03 05:36:36;;;;;;;2.40;2.20;;;15.50;99.90;;;;;;5099991;28;20799;-54
2022/09/03 05:39:04;;;;;;;2.80;2.00;;;15.50;99.90;;;;;;5098869;28;20531;-56
2022/09/03 05:41:34;;;;;;;2.53;2.30;;;15.60;99.90;;;;;;5098608;28;20460;-53
2022/09/03 05:44:02;;;;;;;2.40;2.20;;;15.70;99.90;;;;;;5098839;28;20547;-53
2022/09/03 05:46:36;;;;;;;2.90;2.43;;;15.80;99.90;;;;;;5099189;28;20569;-53
2022/09/03 05:49:05;;;;;;;2.87;2.20;;;16.00;99.90;;;;;;5099516;28;20488;-57
2022/09/03 05:51:36;;;;;;;2.73;2.50;;;16.10;99.90;;;;;;5099303;28;20957;-55
2022/09/03 05:54:04;;;;;;;5.30;2.10;;;16.20;99.90;;;;;;5099429;28;20461;-55
2022/09/03 05:56:34;;;;;;;2.90;2.10;;;16.30;99.90;;;;;;5099605;28;20460;-52
2022/09/03 05:59:05;;;;;;;2.47;2.27;;;16.40;99.90;;;;;;5099307;28;20435;-55
2022/09/03 06:01:36;;;;;;;5.60;2.40;;;16.50;99.90;;;;;;5098955;28;20500;-56
2022/09/03 06:04:05;;;;;;;2.40;2.10;;;16.70;99.90;;;;;;5099328;28;20793;-55
2022/09/03 06:06:37;;;;;;;3.37;2.53;;;16.90;99.90;;;;;;5099620;28;20464;-52
2022/09/03 06:09:06;;;;;;;3.10;2.40;;;17.00;99.90;;;;;;5099115;28;20751;-52
2022/09/03 06:11:35;;;;;;;2.73;2.43;;;17.10;99.90;;;;;;5099085;28;20838;-51
2022/09/03 06:14:05;;;;;;;1.90;1.70;;;17.20;99.90;;;;;;5097322;28;20508;-54
2022/09/03 06:16:34;;;;;;;6.93;2.47;;;17.40;99.90;;;;;;5098646;28;20459;-56
2022/09/03 06:19:02;;;;;;;2.27;2.07;;;17.50;99.90;;;;;;5098133;28;20456;-54
2022/09/03 06:21:29;;;;;;;2.87;2.67;;;17.60;99.90;;;;;;5098498;28;20446;-55
2022/09/03 06:24:00;;;;;;;2.33;2.13;;;17.80;99.90;;;;;;5098146;28;20862;-57
2022/09/03 06:26:28;;;;;;;5.67;2.40;;;18.00;99.90;;;;;;5098609;28;20436;-49
2022/09/03 06:28:57;;;;;;;2.07;1.90;;;18.20;99.90;;;;;;5098468;28;20489;-54
2022/09/03 06:31:25;;;;;;;2.00;1.90;;;18.50;99.90;;;;;;5099047;28;20456;-53
2022/09/03 06:33:53;;;;;;;4.57;2.90;;;18.70;99.90;;;;;;5098975;28;20467;-58
2022/09/03 06:36:27;;;;;;;2.30;2.10;;;19.00;99.90;;;;;;5099101;28;20467;-56
2022/09/03 06:39:05;;;;;;;2.33;2.00;;;19.10;99.90;;;;;;5098842;28;20535;-51
2022/09/03 06:41:34;;;;;;;2.73;2.30;;;19.20;99.90;;;;;;5098565;28;20466;-54
2022/09/03 06:44:03;;;;;;;2.40;2.17;;;19.40;99.90;;;;;;5098824;28;20464;-55
2022/09/03 06:46:32;;;;;;;4.20;1.97;;;19.50;99.90;;;;;;5098906;28;20465;-55
2022/09/03 06:48:59;;;;;;;2.77;2.40;;;19.60;99.90;;;;;;5098046;28;20467;-57
2022/09/03 06:51:28;;;;;;;2.30;2.10;;;19.80;99.90;;;;;;5097972;28;20986;-58
2022/09/03 06:54:02;;;;;;;3.10;2.50;;;20.00;99.90;;;;;;5098415;28;20495;-55
2022/09/03 06:56:29;;;;;;;2.77;2.57;;;20.20;99.90;;;;;;5097481;28;20460;-56
2022/09/03 06:58:58;;;;;;;5.37;2.57;;;20.30;99.90;;;;;;5096500;28;20555;-57
2022/09/03 07:01:29;;;;;;;2.23;2.03;;;20.40;99.90;;;;;;5095555;28;20460;-53
2022/09/03 07:03:59;;;;;;;2.20;2.00;;;20.60;99.90;;;;;;5095941;28;20434;-57
2022/09/03 07:06:29;;;;;;;2.80;2.30;;;20.90;99.90;;;;;;5097556;28;20881;-55
2022/09/03 07:08:58;;;;;;;2.93;2.47;;;20.80;99.90;;;;;;5093991;28;20557;-57
2022/09/03 07:11:29;;;;;;;2.07;1.93;;;20.90;99.90;;;;;;5097043;28;20468;-53
2022/09/03 07:13:57;;;;;;;2.60;2.30;;;21.00;99.90;;;;;;5098118;28;20488;-57
2022/09/03 07:16:26;;;;;;;2.30;2.10;;;21.10;99.90;;;;;;5098083;28;20538;-55
2022/09/03 07:18:54;;;;;;;3.60;2.67;;;21.20;99.90;;;;;;5097232;28;20752;-57
2022/09/03 07:21:23;;;;;;;2.73;2.53;;;21.50;99.90;;;;;;5096895;28;20555;-57
2022/09/03 07:23:55;;;;;;;2.83;2.60;;;21.50;99.90;;;;;;5097837;28;20748;-58
2022/09/03 07:26:23;;;;;;;2.60;2.40;;;21.60;99.90;;;;;;5097887;28;20459;-54
2022/09/03 07:28:53;;;;;;;2.33;2.10;;;21.70;99.90;;;;;;5097519;28;20583;-55
2022/09/03 07:31:24;;;;;;;2.40;2.20;;;21.60;99.90;;;;;;5097845;28;20467;-56
2022/09/03 07:33:55;;;;;;;3.23;2.10;;;21.80;99.90;;;;;;5097691;28;20465;-58
2022/09/03 07:36:24;;;;;;;2.50;2.27;;;22.10;99.90;;;;;;5096651;28;20810;-51
2022/09/03 07:38:54;;;;;;;3.50;2.30;;;22.10;99.90;;;;;;5096055;28;20522;-55
2022/09/03 07:41:21;;;;;;;2.50;2.30;;;21.90;99.90;;;;;;5093557;28;20453;-60
2022/09/03 07:43:49;;;;;;;3.30;2.53;;;22.00;99.90;;;;;;5096045;28;20808;-54
2022/09/03 07:46:22;;;;;;;3.30;2.20;;;22.00;99.90;;;;;;5096686;28;20517;-58
2022/09/03 07:48:57;;;;;;;3.50;2.00;;;22.20;99.90;;;;;;5095674;28;20466;-53
2022/09/03 07:51:27;;;;;;;6.80;2.10;;;22.30;99.90;;;;;;5093885;28;20478;-52
2022/09/03 07:53:57;;;;;;;4.93;3.27;;;22.20;99.90;;;;;;5096523;28;20955;-59
2022/09/03 07:56:29;;;;;;;2.63;2.30;;;22.30;99.90;;;;;;5094201;28;20759;-50
2022/09/03 07:58:57;;;;;;;2.50;2.30;;;22.20;99.90;;;;;;5096084;28;20448;-57
2022/09/03 08:01:31;;;;;;;3.00;2.23;;;22.30;99.90;;;;;;5096098;28;20735;-56
2022/09/03 08:03:59;;;;;;;2.50;2.30;;;22.40;99.90;;;;;;5095176;28;20517;-56
2022/09/03 08:06:31;;;;;;;3.70;2.50;;;22.70;99.90;;;;;;5095631;28;20456;-54
2022/09/03 08:09:00;;;;;;;2.30;2.10;;;23.00;99.90;;;;;;5094290;28;20579;-55
2022/09/03 08:11:30;;;;;;;3.50;2.70;;;23.10;99.90;;;;;;5094956;28;20463;-56
2022/09/03 08:14:01;;;;;;;2.27;2.03;;;23.20;99.90;;;;;;5095826;28;20434;-56
2022/09/03 08:16:36;;;;;;;3.37;2.00;;;23.60;99.90;;;;;;5098308;28;20435;-56
2022/09/03 08:19:06;;;;;;;2.27;2.10;;;23.80;99.90;;;;;;5098824;28;20567;-57
2022/09/03 08:21:34;;;;;;;2.53;2.33;;;24.00;99.90;;;;;;5098520;28;20462;-53
2022/09/03 08:24:05;;;;;;;3.53;2.33;;;23.80;99.90;;;;;;5098054;28;20459;-57
2022/09/03 08:26:35;;;;;;;2.27;2.07;;;23.80;99.90;;;;;;5097262;28;20456;-54
2022/09/03 08:29:03;;;;;;;2.90;2.70;;;23.90;99.90;;;;;;5099576;28;20521;-56
2022/09/03 08:31:32;;;;;;;2.90;2.60;;;24.10;99.90;;;;;;5096473;28;20463;-56
2022/09/03 08:34:10;;;;;;;2.93;1.87;;;24.40;99.90;;;;;;5099619;28;20955;-53
2022/09/03 08:36:43;;;;;;;3.00;2.13;;;24.60;99.90;;;;;;5097793;28;20423;-57
2022/09/03 08:39:12;;;;;;;3.73;1.80;;;24.40;99.90;;;;;;5097203;28;20514;-57
2022/09/03 08:42:09;;;;;;;2.40;2.30;;;24.40;99.90;;;;;;5099108;28;20435;-50
2022/09/03 08:44:46;;;;;;;2.67;2.47;;;24.60;99.90;;;;;;5092145;28;20530;-56
2022/09/03 08:47:21;;;;;;;2.63;2.43;;;24.70;99.90;;;;;;5096636;28;20512;-55
2022/09/03 08:49:58;;;;;;;2.50;2.30;;;25.20;99.90;;;;;;5095740;28;20571;-54
2022/09/03 08:52:31;;;;;;;5.10;2.60;;;25.50;99.90;;;;;;5097794;28;20458;-51
2022/09/03 08:55:14;;;;;;;2.60;2.40;;;25.50;99.90;;;;;;5099189;28;20456;-53
2022/09/03 08:57:46;;;;;;;3.73;2.40;;;25.20;99.90;;;;;;5097380;28;20460;-56
2022/09/03 09:00:14;;;;;;;3.13;2.77;;;25.20;99.90;;;;;;5099016;28;20885;-54
2022/09/03 09:02:55;;;;;;;5.30;2.40;;;25.60;99.90;;;;;;5098008;28;20460;-54
2022/09/03 09:05:30;;;;;;;2.30;1.97;;;25.90;99.90;;;;;;5096636;28;20885;-54
2022/09/03 09:08:05;;;;;;;2.63;2.43;;;25.60;99.90;;;;;;5095479;28;20448;-50
2022/09/03 09:10:38;;;;;;;3.03;2.83;;;25.90;99.90;;;;;;5098535;28;20486;-58
2022/09/03 09:13:15;;;;;;;3.47;2.30;;;26.20;99.90;;;;;;5098609;28;20480;-58
2022/09/03 09:15:50;;;;;;;2.60;2.40;;;26.40;99.90;;;;;;5096889;28;20912;-54
2022/09/03 09:18:30;;;;;;;5.93;2.53;;;26.70;99.90;;;;;;5096045;28;20496;-53
2022/09/03 09:21:08;;;;;;;2.50;2.30;;;26.70;99.90;;;;;;5096372;28;20543;-58
2022/09/03 09:23:41;;;;;;;3.83;2.23;;;26.50;99.90;;;;;;5097045;28;20873;-58
2022/09/03 09:26:13;;;;;;;2.10;1.90;;;26.30;99.90;;;;;;5095526;28;20448;-50
2022/09/03 09:28:47;;;;;;;2.50;2.30;;;26.70;99.90;;;;;;5097836;28;20925;-51
2022/09/03 09:31:17;;;;;;;3.27;2.40;;;27.10;99.90;;;;;;5095715;28;20600;-60
2022/09/03 09:33:46;;;;;;;3.07;2.87;;;26.90;99.90;;;;;;5095266;28;20490;-53
2022/09/03 09:36:15;;;;;;;3.33;3.03;;;26.90;99.90;;;;;;5097517;28;20543;-51
2022/09/03 09:38:45;;;;;;;2.90;2.70;;;26.80;99.90;;;;;;5096164;28;20907;-55
2022/09/03 09:41:14;;;;;;;2.90;2.70;;;26.60;99.90;;;;;;5097004;28;20489;-56
2022/09/03 09:43:42;;;;;;;3.80;2.70;;;26.60;99.90;;;;;;5097976;28;20590;-53
2022/09/03 09:46:13;;;;;;;3.87;2.43;;;26.80;99.90;;;;;;5098657;28;20559;-53
2022/09/03 09:48:52;;;;;;;2.30;2.10;;;26.90;99.90;;;;;;5096912;28;20551;-52
2022/09/03 09:51:21;;;;;;;2.80;2.50;;;26.90;99.90;;;;;;5097914;28;20502;-57
2022/09/03 09:54:02;;;;;;;3.27;2.97;;;26.00;99.90;;;;;;5094446;28;20499;-56
2022/09/03 09:56:32;;;;;;;2.87;2.57;;;25.30;99.90;;;;;;5087345;28;20441;-58
2022/09/03 09:59:05;;;;;;;3.10;1.93;;;25.00;99.90;;;;;;5097783;28;20511;-57
2022/09/03 10:01:37;;;;;;;2.07;1.97;;;24.70;99.90;;;;;;5097484;28;20497;-53
2022/09/03 10:04:11;;;;;;;4.20;2.73;;;24.40;99.90;;;;;;5097591;28;20471;-56
2022/09/03 10:06:56;;;;;;;2.57;2.37;;;24.40;99.90;;;;;;5096780;28;20858;-56
2022/09/03 10:09:29;;;;;;;4.37;2.27;;;24.40;99.90;;;;;;5095919;28;20486;-58
2022/09/03 10:12:10;;;;;;;3.40;2.27;;;24.40;99.90;;;;;;5096916;28;20530;-56
2022/09/03 10:14:40;;;;;;;4.10;2.30;;;24.60;99.90;;;;;;5097418;28;20430;-54
2022/09/03 10:17:14;;;;;;;2.57;2.20;;;25.00;99.90;;;;;;5097363;28;20554;-55
2022/09/03 10:20:26;;;;;;;3.00;2.60;;;26.10;99.90;;;;;;5098164;28;20889;-55
2022/09/03 10:22:45;;;;;;;2.67;2.40;;;27.30;99.90;;;;;;5097319;28;20888;-60
2022/09/03 10:25:16;;;;;;;2.47;2.27;;;28.50;99.90;;;;;;5097864;28;20511;-57
2022/09/03 10:27:44;;;;;;;2.37;2.20;;;29.60;99.90;;;;;;5096402;28;20891;-58
2022/09/03 10:30:14;;;;;;;2.33;2.23;;;30.10;99.90;;;;;;5097670;28;20507;-57
2022/09/03 10:32:50;;;;;;;2.70;2.50;;;29.40;99.90;;;;;;5098205;28;20936;-50
2022/09/03 10:35:29;;;;;;;3.70;2.73;;;28.80;99.90;;;;;;5097497;28;20464;-60
2022/09/03 10:38:12;;;;;;;2.60;2.40;;;28.50;99.90;;;;;;5095393;28;20848;-57
2022/09/03 10:40:43;;;;;;;4.03;2.53;;;27.90;99.90;;;;;;5097198;28;20448;-56
2022/09/03 10:43:28;;;;;;;2.83;2.50;;;27.10;99.90;;;;;;5097285;28;20558;-52
2022/09/03 10:46:05;;;;;;;3.13;2.30;;;26.10;99.90;;;;;;5085793;28;20465;-54
2022/09/03 10:49:10;;;;;;;3.43;2.73;;;25.80;99.90;;;;;;5087600;28;20431;-57
2022/09/03 10:51:47;;;;;;;3.00;2.80;;;25.70;99.90;;;;;;5093935;28;20488;-53
2022/09/03 10:54:33;;;;;;;4.53;2.30;;;25.00;99.90;;;;;;5077573;28;20468;-58
2022/09/03 10:57:11;;;;;;;2.50;2.30;;;25.00;99.90;;;;;;5086690;28;20772;-50
2022/09/03 10:59:54;;;;;;;2.90;2.70;;;24.90;99.90;;;;;;5093719;28;20527;-55
2022/09/03 11:02:39;;;;;;;2.37;2.07;;;24.90;99.90;;;;;;5095517;28;20539;-54
2022/09/03 11:05:12;;;;;;;2.67;2.47;;;24.70;99.90;;;;;;5096815;28;20463;-52
2022/09/03 11:07:48;;;;;;;2.83;2.37;;;24.60;99.90;;;;;;5095080;28;20469;-54
2022/09/03 11:10:23;;;;;;;4.03;2.67;;;24.50;99.90;;;;;;5099243;28;20527;-55
2022/09/03 11:12:59;;;;;;;2.50;2.30;;;24.40;99.90;;;;;;5096677;28;20494;-55
2022/09/03 11:15:33;;;;;;;6.23;2.97;;;24.50;99.90;;;;;;5097130;28;20452;-54
2022/09/03 11:18:04;;;;;;;2.87;2.27;;;24.60;99.90;;;;;;5098843;28;20526;-54
2022/09/03 11:20:34;;;;;;;3.50;3.20;;;24.70;99.90;;;;;;5098627;28;20912;-49
2022/09/03 11:23:07;;;;;;;3.07;2.77;;;24.30;99.90;;;;;;5092674;28;20471;-50
2022/09/03 11:25:37;;;;;;;3.03;2.83;;;24.30;99.90;;;;;;5093578;28;20547;-50
2022/09/03 11:28:17;;;;;;;2.80;2.60;;;24.50;99.90;;;;;;5094893;28;20473;-49
2022/09/03 11:31:03;;;;;;;4.30;2.30;;;24.50;99.90;;;;;;5091032;28;20484;-47
2022/09/03 11:33:43;;;;;;;2.97;2.30;;;24.60;99.90;;;;;;5101373;28;20959;-51
2022/09/03 11:36:15;;;;;;;4.00;3.70;;;24.30;99.90;;;;;;5097552;28;20438;-51
2022/09/03 11:38:44;;;;;;;3.10;2.73;;;24.30;99.90;;;;;;5117275;28;20456;-54
2022/09/03 11:41:14;;;;;;;3.10;2.80;;;24.30;99.90;;;;;;5102484;28;20544;-53
2022/09/03 11:43:43;;;;;;;3.23;3.03;;;24.40;99.90;;;;;;5104600;28;20503;-52
2022/09/03 11:46:13;;;;;;;3.07;2.40;;;24.30;99.90;;;;;;5104268;28;20753;-56
2022/09/03 11:48:46;;;;;;;23.23;6.20;;;24.40;99.90;;;;;;5117951;28;20779;-53
2022/09/03 11:51:20;;;;;;;17.03;4.73;;;24.30;99.90;;;;;;5104925;28;20492;-52
2022/09/03 11:54:03;;;;;;;3.30;2.97;;;24.50;99.90;;;;;;5095671;28;20563;-54
2022/09/03 11:56:32;;;;;;;7.60;2.90;;;24.50;99.90;;;;;;5103773;28;20446;-55
2022/09/03 11:59:15;;;;;;;3.40;3.10;;;24.60;99.90;;;;;;5116568;28;20541;-52
2022/09/03 12:01:47;;;;;;;4.67;2.97;;;24.80;99.90;;;;;;5105077;28;20547;-52
2022/09/03 12:04:16;;;;;;;3.30;3.00;;;24.80;99.90;;;;;;5097620;28;20460;-54
2022/09/03 12:07:06;;;;;;;3.87;3.00;;;25.20;99.90;;;;;;5096339;28;20456;-57
2022/09/03 12:09:59;;;;;;;3.40;3.10;;;25.20;99.90;;;;;;5096181;28;20430;-57
2022/09/03 12:13:01;;;;;;;3.40;3.20;;;25.50;99.90;;;;;;5095460;28;20855;-55
2022/09/03 12:15:56;;;;;;;3.13;2.90;;;25.80;99.90;;;;;;5095969;28;20513;-53
2022/09/03 12:18:31;;;;;;;3.23;3.03;;;26.10;99.90;;;;;;5102059;28;20562;-59
2022/09/03 12:21:03;;;;;;;3.13;2.83;;;26.90;99.90;;;;;;5116001;28;20554;-53
2022/09/03 12:23:33;;;;;;;3.60;3.30;;;27.20;99.90;;;;;;5096584;28;20468;-49
2022/09/03 12:26:05;;;;;;;3.40;3.10;;;27.40;99.90;;;;;;5096883;28;20458;-50
2022/09/03 12:28:40;;;;;;;3.30;3.00;;;27.10;99.90;;;;;;5097289;28;20555;-58
2022/09/03 12:31:20;;;;;;;4.20;3.80;;;26.80;99.90;;;;;;5097336;28;20491;-53
2022/09/03 12:33:53;;;;;;;4.47;3.23;;;26.70;99.90;;;;;;5096295;28;20464;-56
2022/09/03 12:36:22;;;;;;;3.30;3.00;;;26.30;99.90;;;;;;5096973;28;20950;-56
2022/09/03 12:38:50;;;;;;;3.57;3.33;;;26.60;99.90;;;;;;5094306;28;20904;-57
2022/09/03 12:41:25;;;;;;;3.40;3.10;;;27.40;99.90;;;;;;5087156;28;20761;-56
2022/09/03 12:43:54;;;;;;;3.30;3.00;;;28.60;99.90;;;;;;5095627;28;20510;-55
2022/09/03 12:46:25;;;;;;;3.40;3.10;;;29.20;99.90;;;;;;5095141;28;20509;-59
2022/09/03 12:49:03;;;;;;;3.60;3.27;;;29.20;99.90;;;;;;5081840;28;20532;-56
2022/09/03 12:51:37;;;;;;;3.77;3.37;;;29.20;99.90;;;;;;5100503;28;20491;-53
2022/09/03 12:54:13;;;;;;;3.97;3.70;;;29.00;99.90;;;;;;5102305;28;20927;-56
2022/09/03 12:56:44;;;;;;;3.40;3.10;;;29.30;99.90;;;;;;5095360;28;20474;-51
2022/09/03 12:59:15;;;;;;;3.60;3.40;;;28.60;99.90;;;;;;5094183;28;20935;-54
2022/09/03 13:01:48;;;;;;;4.03;3.57;;;29.00;99.90;;;;;;5099204;28;20456;-57
2022/09/03 13:04:18;;;;;;;3.23;3.03;;;29.40;99.90;;;;;;5101495;28;20495;-53
2022/09/03 13:06:50;;;;;;;3.33;3.13;;;29.80;99.90;;;;;;5098448;28;20478;-53
2022/09/03 13:09:23;;;;;;;3.10;2.90;;;30.00;99.90;;;;;;5099349;28;20456;-59
2022/09/03 13:11:57;;;;;;;4.13;3.73;;;30.20;99.90;;;;;;5098898;28;20492;-57
2022/09/03 13:14:26;;;;;;;3.20;3.00;;;29.30;99.90;;;;;;5099527;28;20473;-52
2022/09/03 13:17:18;;;;;;;2.87;2.67;;;29.00;99.90;;;;;;5098006;28;20976;-53
2022/09/03 13:19:59;;;;;;;3.33;3.13;;;29.20;99.90;;;;;;5100175;28;20467;-53